createdAt,value
2023-04-05T00:02:11.120Z,101925.50
2023-04-05T00:04:38.801Z,101922.41
2023-04-05T00:07:08.268Z,101914.94
2023-04-05T00:09:34.896Z,101919.94
2023-04-05T00:12:01.504Z,101912.75
2023-04-05T00:14:28.081Z,101918.56
2023-04-05T00:16:55.037Z,101914.38
2023-04-05T00:19:23.333Z,101920.38
2023-04-05T00:21:50.190Z,101911.00
2023-04-05T00:24:17.002Z,101909.69
2023-04-05T00:26:44.161Z,101914.38
2023-04-05T00:29:10.900Z,101917.41
2023-04-05T00:31:37.701Z,101913.97
2023-04-05T00:34:06.027Z,101919.97
2023-04-05T00:36:32.756Z,101909.97
2023-04-05T00:38:59.330Z,101909.97
2023-04-05T00:41:25.858Z,101917.56
2023-04-05T00:43:52.440Z,101915.16
2023-04-05T00:46:19.022Z,101914.97
2023-04-05T00:48:45.952Z,101906.97
2023-04-05T00:51:12.623Z,101909.19
2023-04-05T00:53:40.753Z,101908.66
2023-04-05T00:56:08.559Z,101908.66
2023-04-05T00:58:35.077Z,101904.19
2023-04-05T01:01:14.182Z,101904.88
2023-04-05T01:03:47.310Z,101903.28
2023-04-05T01:06:27.565Z,101901.69
2023-04-05T01:09:32.872Z,101896.59
2023-04-05T01:12:02.445Z,101895.81
2023-04-05T01:14:29.036Z,101896.78
2023-04-05T01:16:58.443Z,101897.09
2023-04-05T01:19:29.182Z,101902.97
2023-04-05T01:22:13.706Z,101900.97
2023-04-05T01:25:10.977Z,101896.78
2023-04-05T01:28:03.960Z,101901.88
2023-04-05T01:30:34.984Z,101904.56
2023-04-05T01:33:04.837Z,101897.81
2023-04-05T01:35:45.104Z,101891.00
2023-04-05T01:38:14.278Z,101893.97
2023-04-05T01:40:42.147Z,101906.56
2023-04-05T01:43:15.976Z,101897.84
2023-04-05T01:45:43.408Z,101894.56
2023-04-05T01:48:10.292Z,101899.94
2023-04-05T01:50:37.060Z,101901.91
2023-04-05T01:53:03.831Z,101893.34
2023-04-05T01:55:30.458Z,101891.75
2023-04-05T01:57:58.103Z,101883.19
2023-04-05T02:00:24.963Z,101887.56
2023-04-05T02:02:51.902Z,101889.16
2023-04-05T02:05:18.517Z,101881.34
2023-04-05T02:07:45.078Z,101879.25
2023-04-05T02:10:12.072Z,101885.72
2023-04-05T02:12:39.272Z,101879.34
2023-04-05T02:15:06.855Z,101878.75
2023-04-05T02:17:39.476Z,101883.44
2023-04-05T02:20:07.816Z,101880.44
2023-04-05T02:22:34.737Z,101881.53
2023-04-05T02:25:01.690Z,101885.09
2023-04-05T02:27:28.218Z,101881.72
2023-04-05T02:29:55.814Z,101879.31
2023-04-05T02:32:22.324Z,101875.59
2023-04-05T02:34:48.816Z,101879.38
2023-04-05T02:37:15.404Z,101881.59
2023-04-05T02:39:41.983Z,101870.00
2023-04-05T02:42:08.608Z,101871.31
2023-04-05T02:44:35.552Z,101868.91
2023-04-05T02:47:02.468Z,101865.44
2023-04-05T02:49:31.817Z,101870.00
2023-04-05T02:52:01.184Z,101863.81
2023-04-05T02:54:27.805Z,101867.88
2023-04-05T02:57:02.379Z,101867.69
2023-04-05T02:59:34.189Z,101873.06
2023-04-05T03:02:01.448Z,101867.09
2023-04-05T03:04:28.417Z,101865.94
2023-04-05T03:07:04.901Z,101865.94
2023-04-05T03:09:35.024Z,101868.53
2023-04-05T03:12:06.064Z,101862.34
2023-04-05T03:14:36.590Z,101856.59
2023-04-05T03:17:03.419Z,101860.38
2023-04-05T03:19:38.554Z,101860.88
2023-04-05T03:22:13.671Z,101848.41
2023-04-05T03:24:42.549Z,101850.50
2023-04-05T03:27:11.671Z,101839.06
2023-04-05T03:29:52.596Z,101841.22
2023-04-05T03:32:19.191Z,101838.16
2023-04-05T03:34:51.973Z,101826.88
2023-04-05T03:37:20.169Z,101825.06
2023-04-05T03:39:57.472Z,101830.06
2023-04-05T03:42:24.433Z,101832.38
2023-04-05T03:44:53.160Z,101820.41
2023-04-05T03:47:19.981Z,101824.91
2023-04-05T03:49:46.486Z,101817.09
2023-04-05T03:52:13.000Z,101828.88
2023-04-05T03:54:43.977Z,101826.81
2023-04-05T03:57:11.477Z,101822.28
2023-04-05T03:59:39.888Z,101825.88
2023-04-05T04:02:07.741Z,101834.28
2023-04-05T04:04:34.432Z,101836.69
2023-04-05T04:07:01.006Z,101832.88
2023-04-05T04:09:32.094Z,101837.97
2023-04-05T04:12:05.620Z,101840.16
2023-04-05T04:14:37.204Z,101835.75
2023-04-05T04:17:36.142Z,101835.25
2023-04-05T04:20:27.367Z,101834.06
2023-04-05T04:23:14.516Z,101828.16
2023-04-05T04:26:03.084Z,101829.47
2023-04-05T04:28:48.771Z,101833.66
2023-04-05T04:31:33.940Z,101826.97
2023-04-05T04:34:30.595Z,101833.03
2023-04-05T04:37:30.248Z,101829.06
2023-04-05T04:40:47.871Z,101825.97
2023-04-05T04:43:27.280Z,101830.06
2023-04-05T04:46:15.299Z,101836.97
2023-04-05T04:49:06.662Z,101837.16
2023-04-05T04:51:33.939Z,101837.25
2023-04-05T04:54:00.761Z,101828.88
2023-04-05T04:56:27.496Z,101839.38
2023-04-05T04:58:56.403Z,101835.56
2023-04-05T05:01:25.025Z,101828.88
2023-04-05T05:03:52.221Z,101825.44
2023-04-05T05:06:23.721Z,101830.06
2023-04-05T05:08:50.834Z,101829.25
2023-04-05T05:11:17.365Z,101827.06
2023-04-05T05:13:43.917Z,101833.44
2023-04-05T05:16:17.861Z,101826.81
2023-04-05T05:18:48.093Z,101823.03
2023-04-05T05:21:14.603Z,101827.22
2023-04-05T05:23:41.546Z,101827.50
2023-04-05T05:26:08.082Z,101834.38
2023-04-05T05:28:34.670Z,101830.94
2023-04-05T05:31:01.203Z,101830.53
2023-04-05T05:33:27.773Z,101837.41
2023-04-05T05:35:54.346Z,101831.28
2023-04-05T05:38:20.921Z,101825.94
2023-04-05T05:40:47.425Z,101827.09
2023-04-05T05:43:13.962Z,101829.63
2023-04-05T05:45:40.496Z,101823.50
2023-04-05T05:48:07.099Z,101821.16
2023-04-05T05:50:33.688Z,101821.78
2023-04-05T05:53:01.603Z,101817.84
2023-04-05T05:55:28.545Z,101824.56
2023-04-05T05:57:55.254Z,101825.53
2023-04-05T06:00:22.781Z,101818.44
2023-04-05T06:02:49.633Z,101819.56
2023-04-05T06:05:16.276Z,101819.75
2023-04-05T06:07:42.779Z,101826.47
2023-04-05T06:10:09.664Z,101825.22
2023-04-05T06:12:36.154Z,101828.44
2023-04-05T06:15:02.987Z,101814.97
2023-04-05T06:17:29.619Z,101819.72
2023-04-05T06:19:56.189Z,101823.25
2023-04-05T06:22:23.672Z,101820.25
2023-04-05T06:24:50.238Z,101815.13
2023-04-05T06:27:16.861Z,101816.88
2023-04-05T06:29:43.476Z,101817.50
2023-04-05T06:32:10.127Z,101808.19
2023-04-05T06:34:36.969Z,101810.97
2023-04-05T06:37:03.579Z,101810.94
2023-04-05T06:39:30.141Z,101806.31
2023-04-05T06:41:56.679Z,101806.81
2023-04-05T06:44:27.684Z,101802.28
2023-04-05T06:46:54.177Z,101812.47
2023-04-05T06:49:20.726Z,101811.28
2023-04-05T06:51:47.230Z,101817.13
2023-04-05T06:54:13.838Z,101822.78
2023-04-05T06:56:40.601Z,101818.69
2023-04-05T06:59:07.135Z,101822.84
2023-04-05T07:01:33.753Z,101831.81
2023-04-05T07:04:00.728Z,101829.09
2023-04-05T07:06:27.355Z,101829.09
2023-04-05T07:08:53.873Z,101821.50
2023-04-05T07:11:21.464Z,101825.44
2023-04-05T07:13:47.967Z,101829.41
2023-04-05T07:16:14.546Z,101825.53
2023-04-05T07:18:41.065Z,101824.59
2023-04-05T07:21:07.599Z,101822.56
2023-04-05T07:23:34.093Z,101819.69
2023-04-05T07:26:04.465Z,101820.38
2023-04-05T07:28:35.611Z,101817.88
2023-04-05T07:31:03.178Z,101812.22
2023-04-05T07:33:29.664Z,101811.19
2023-04-05T07:35:57.046Z,101805.75
2023-04-05T07:38:24.000Z,101801.78
2023-04-05T07:40:51.155Z,101799.97
2023-04-05T07:43:18.651Z,101797.44
2023-04-05T07:45:45.615Z,101798.75
2023-04-05T07:48:12.121Z,101792.34
2023-04-05T07:50:41.125Z,101805.63
2023-04-05T07:53:08.255Z,101793.88
2023-04-05T07:55:37.820Z,101802.47
2023-04-05T07:58:04.315Z,101803.59
2023-04-05T08:00:30.836Z,101807.31
2023-04-05T08:03:00.639Z,101806.16
2023-04-05T08:05:28.566Z,101810.81
2023-04-05T08:07:57.965Z,101819.66
2023-04-05T08:10:24.918Z,101816.69
2023-04-05T08:12:51.456Z,101808.84
2023-04-05T08:15:17.954Z,101808.63
2023-04-05T08:17:44.519Z,101809.09
2023-04-05T08:20:11.392Z,101807.41
2023-04-05T08:22:37.903Z,101805.91
2023-04-05T08:25:04.633Z,101801.88
2023-04-05T08:27:31.186Z,101805.75
2023-04-05T08:29:57.735Z,101808.41
2023-04-05T08:32:24.281Z,101810.19
2023-04-05T08:34:50.766Z,101800.34
2023-04-05T08:37:17.280Z,101802.94
2023-04-05T08:39:43.773Z,101810.19
2023-04-05T08:42:18.822Z,101802.47
2023-04-05T08:44:46.565Z,101801.75
2023-04-05T08:47:15.318Z,101795.72
2023-04-05T08:49:45.888Z,101794.41
2023-04-05T08:52:12.493Z,101799.31
2023-04-05T08:54:39.137Z,101790.75
2023-04-05T08:57:06.195Z,101795.25
2023-04-05T08:59:35.527Z,101790.31
2023-04-05T09:02:04.553Z,101788.16
2023-04-05T09:04:32.533Z,101778.25
2023-04-05T09:06:59.488Z,101789.97
2023-04-05T09:09:26.255Z,101786.22
2023-04-05T09:11:53.072Z,101778.00
2023-04-05T09:14:20.771Z,101779.03
2023-04-05T09:16:47.310Z,101780.16
2023-04-05T09:19:14.080Z,101774.31
2023-04-05T09:22:00.644Z,101772.34
2023-04-05T09:24:35.389Z,101774.03
2023-04-05T09:27:13.005Z,101781.94
2023-04-05T09:29:41.403Z,101775.41
2023-04-05T09:32:10.142Z,101777.91
2023-04-05T09:34:44.752Z,101771.47
2023-04-05T09:37:20.774Z,101778.53
2023-04-05T09:39:49.857Z,101769.78
2023-04-05T09:42:19.256Z,101771.53
2023-04-05T09:44:54.031Z,101779.28
2023-04-05T09:47:22.415Z,101777.25
2023-04-05T09:49:53.466Z,101777.34
2023-04-05T09:52:32.111Z,101765.84
2023-04-05T09:55:01.725Z,101769.81
2023-04-05T09:57:30.476Z,101770.09
2023-04-05T09:59:57.017Z,101761.47
2023-04-05T10:02:24.104Z,101763.00
2023-04-05T10:04:51.218Z,101761.28
2023-04-05T10:07:19.822Z,101758.69
2023-04-05T10:09:47.521Z,101752.88
2023-04-05T10:12:23.313Z,101752.22
2023-04-05T10:14:49.936Z,101756.88
2023-04-05T10:17:20.183Z,101755.03
2023-04-05T10:20:13.944Z,101752.63
2023-04-05T10:23:03.677Z,101758.78
2023-04-05T10:25:50.402Z,101758.44
2023-04-05T10:28:25.282Z,101748.94
2023-04-05T10:30:53.079Z,101759.38
2023-04-05T10:33:31.961Z,101756.53
2023-04-05T10:36:38.234Z,101748.75
2023-04-05T10:39:26.470Z,101744.72
2023-04-05T10:41:54.954Z,101754.91
2023-04-05T10:44:26.258Z,101750.00
2023-04-05T10:46:54.668Z,101747.41
2023-04-05T10:49:37.696Z,101746.22
2023-04-05T10:52:04.538Z,101740.88
2023-04-05T10:54:36.671Z,101743.63
2023-04-05T10:57:07.594Z,101744.94
2023-04-05T10:59:36.513Z,101743.25
2023-04-05T11:02:04.277Z,101743.69
2023-04-05T11:04:33.635Z,101740.97
2023-04-05T11:07:14.673Z,101740.66
2023-04-05T11:09:51.601Z,101742.69
2023-04-05T11:12:18.259Z,101734.00
2023-04-05T11:14:44.907Z,101738.50
2023-04-05T11:17:28.529Z,101733.31
2023-04-05T11:20:05.317Z,101737.09
2023-04-05T11:22:31.923Z,101740.06
2023-04-05T11:25:02.783Z,101734.09
2023-04-05T11:27:34.197Z,101737.34
2023-04-05T11:30:02.126Z,101746.31
2023-04-05T11:32:45.489Z,101747.38
2023-04-05T11:35:17.735Z,101741.06
2023-04-05T11:37:53.313Z,101741.13
2023-04-05T11:40:28.018Z,101743.44
2023-04-05T11:43:10.044Z,101752.13
2023-04-05T11:45:38.428Z,101745.63
2023-04-05T11:48:10.058Z,101746.00
2023-04-05T11:50:38.412Z,101736.28
2023-04-05T11:53:12.516Z,101734.94
2023-04-05T11:55:40.812Z,101736.84
2023-04-05T11:58:12.402Z,101728.81
2023-04-05T12:00:39.511Z,101732.59
2023-04-05T12:03:06.313Z,101726.28
2023-04-05T12:05:52.385Z,101733.28
2023-04-05T12:08:20.051Z,101732.53
2023-04-05T12:11:02.153Z,101728.53
2023-04-05T12:13:32.520Z,101719.91
2023-04-05T12:16:00.042Z,101721.41
2023-04-05T12:18:27.750Z,101728.75
2023-04-05T12:20:54.903Z,101729.66
2023-04-05T12:23:22.742Z,101725.25
2023-04-05T12:25:49.326Z,101722.97
2023-04-05T12:28:16.159Z,101726.28
2023-04-05T12:30:58.816Z,101710.19
2023-04-05T12:33:30.341Z,101716.94
2023-04-05T12:35:57.291Z,101701.94
2023-04-05T12:38:27.646Z,101703.59
2023-04-05T12:40:54.968Z,101714.72
2023-04-05T12:43:21.562Z,101705.09
2023-04-05T12:45:50.527Z,101708.56
2023-04-05T12:48:22.471Z,101706.91
2023-04-05T12:50:51.956Z,101703.66
2023-04-05T12:53:21.120Z,101705.59
2023-04-05T12:55:52.846Z,101699.16
2023-04-05T12:58:20.393Z,101702.63
2023-04-05T13:00:47.361Z,101707.31
2023-04-05T13:03:20.655Z,101703.63
2023-04-05T13:05:50.748Z,101694.53
2023-04-05T13:08:20.204Z,101692.63
2023-04-05T13:10:48.024Z,101689.22
2023-04-05T13:13:16.360Z,101689.88
2023-04-05T13:15:43.757Z,101693.25
2023-04-05T13:18:10.748Z,101674.41
2023-04-05T13:20:37.729Z,101671.25
2023-04-05T13:23:04.277Z,101675.91
2023-04-05T13:25:30.825Z,101673.81
2023-04-05T13:27:57.381Z,101677.72
2023-04-05T13:30:23.983Z,101673.03
2023-04-05T13:32:50.545Z,101671.00
2023-04-05T13:35:17.148Z,101672.94
2023-04-05T13:37:43.639Z,101671.81
2023-04-05T13:40:10.609Z,101669.16
2023-04-05T13:42:37.259Z,101663.75
2023-04-05T13:45:04.606Z,101664.22
2023-04-05T13:47:31.188Z,101654.03
2023-04-05T13:49:57.779Z,101664.19
2023-04-05T13:52:25.872Z,101652.78
2023-04-05T13:55:03.475Z,101669.97
2023-04-05T13:57:30.506Z,101651.81
2023-04-05T13:59:57.133Z,101653.63
2023-04-05T14:02:26.069Z,101655.38
2023-04-05T14:04:53.527Z,101654.81
2023-04-05T14:07:24.052Z,101654.81
2023-04-05T14:09:50.571Z,101654.81
2023-04-05T14:12:17.798Z,101643.06
2023-04-05T14:14:44.337Z,101642.97
2023-04-05T14:17:12.609Z,101642.16
2023-04-05T14:19:39.679Z,101629.84
2023-04-05T14:22:06.230Z,101624.59
2023-04-05T14:24:32.782Z,101624.03
2023-04-05T14:26:59.326Z,101621.66
2023-04-05T14:29:25.995Z,101624.47
2023-04-05T14:31:54.744Z,101625.00
2023-04-05T14:34:21.295Z,101620.13
2023-04-05T14:36:47.803Z,101616.78
2023-04-05T14:39:14.310Z,101617.81
2023-04-05T14:41:41.059Z,101614.13
2023-04-05T14:44:07.553Z,101607.91
2023-04-05T14:46:34.128Z,101611.31
2023-04-05T14:49:00.675Z,101606.09
2023-04-05T14:51:27.456Z,101604.31
2023-04-05T14:53:53.980Z,101603.25
2023-04-05T14:56:21.099Z,101610.88
2023-04-05T14:58:47.673Z,101604.88
2023-04-05T15:01:14.375Z,101605.59
2023-04-05T15:03:41.109Z,101601.34
2023-04-05T15:06:07.790Z,101611.44
2023-04-05T15:08:34.300Z,101604.72
2023-04-05T15:11:00.957Z,101600.69
2023-04-05T15:13:27.552Z,101603.38
2023-04-05T15:15:54.076Z,101604.78
2023-04-05T15:18:20.911Z,101605.09
2023-04-05T15:20:47.469Z,101597.34
2023-04-05T15:23:14.096Z,101593.13
2023-04-05T15:25:40.652Z,101588.28
2023-04-05T15:28:07.296Z,101599.16
2023-04-05T15:30:33.930Z,101592.69
2023-04-05T15:33:00.809Z,101585.31
2023-04-05T15:35:27.607Z,101595.41
2023-04-05T15:37:54.208Z,101594.44
2023-04-05T15:40:20.836Z,101585.56
2023-04-05T15:42:47.371Z,101583.94
2023-04-05T15:45:13.954Z,101587.94
2023-04-05T15:47:41.603Z,101581.75
2023-04-05T15:50:08.248Z,101584.47
2023-04-05T15:52:35.432Z,101584.91
2023-04-05T15:55:02.633Z,101581.00
2023-04-05T15:57:29.188Z,101582.94
2023-04-05T15:59:55.693Z,101579.44
2023-04-05T16:02:22.514Z,101574.63
2023-04-05T16:04:49.116Z,101575.78
2023-04-05T16:07:15.679Z,101576.44
2023-04-05T16:09:42.198Z,101591.56
2023-04-05T16:12:08.730Z,101592.25
2023-04-05T16:14:35.285Z,101582.75
2023-04-05T16:17:01.974Z,101579.69
2023-04-05T16:19:28.526Z,101576.81
2023-04-05T16:21:55.899Z,101575.25
2023-04-05T16:24:22.574Z,101577.97
2023-04-05T16:26:49.317Z,101576.81
2023-04-05T16:29:15.863Z,101567.59
2023-04-05T16:31:47.122Z,101568.75
2023-04-05T16:34:14.159Z,101574.44
2023-04-05T16:36:41.766Z,101569.81
2023-04-05T16:39:08.868Z,101573.25
2023-04-05T16:41:37.957Z,101575.00
2023-04-05T16:44:04.634Z,101569.41
2023-04-05T16:46:32.291Z,101576.78
2023-04-05T16:49:02.493Z,101567.47
2023-04-05T16:51:29.294Z,101573.94
2023-04-05T16:53:55.968Z,101576.44
2023-04-05T16:56:23.408Z,101577.72
2023-04-05T16:58:50.018Z,101566.94
2023-04-05T17:01:16.778Z,101570.78
2023-04-05T17:03:46.940Z,101575.34
2023-04-05T17:06:14.521Z,101577.63
2023-04-05T17:08:41.117Z,101582.66
2023-04-05T17:11:07.776Z,101576.59
2023-04-05T17:13:34.284Z,101577.09
2023-04-05T17:16:00.953Z,101573.94
2023-04-05T17:18:27.685Z,101574.34
2023-04-05T17:20:54.215Z,101575.31
2023-04-05T17:23:20.790Z,101574.56
2023-04-05T17:25:47.373Z,101573.41
2023-04-05T17:28:13.941Z,101576.41
2023-04-05T17:30:40.487Z,101573.13
2023-04-05T17:33:07.044Z,101577.41
2023-04-05T17:35:33.751Z,101581.63
2023-04-05T17:38:03.155Z,101583.53
2023-04-05T17:40:30.721Z,101582.34
2023-04-05T17:42:57.222Z,101587.00
2023-04-05T17:45:23.847Z,101591.19
2023-04-05T17:47:50.485Z,101585.31
2023-04-05T17:50:17.181Z,101584.84
2023-04-05T17:52:43.799Z,101589.94
2023-04-05T17:55:10.460Z,101592.38
2023-04-05T17:57:36.948Z,101590.19
2023-04-05T18:00:04.108Z,101590.59
2023-04-05T18:02:31.506Z,101587.09
2023-04-05T18:04:58.089Z,101594.31
2023-04-05T18:07:24.627Z,101596.22
2023-04-05T18:09:51.156Z,101597.28
2023-04-05T18:12:18.215Z,101608.25
2023-04-05T18:14:44.863Z,101597.84
2023-04-05T18:17:11.499Z,101601.31
2023-04-05T18:19:38.199Z,101598.16
2023-04-05T18:22:04.883Z,101609.19
2023-04-05T18:24:31.505Z,101606.03
2023-04-05T18:26:58.098Z,101612.25
2023-04-05T18:29:28.374Z,101608.88
2023-04-05T18:31:55.872Z,101611.59
2023-04-05T18:34:22.510Z,101606.22
2023-04-05T18:36:49.040Z,101607.53
2023-04-05T18:39:16.694Z,101613.94
2023-04-05T18:41:43.256Z,101610.16
2023-04-05T18:44:09.799Z,101615.13
2023-04-05T18:46:36.356Z,101620.22
2023-04-05T18:49:03.252Z,101615.94
2023-04-05T18:51:29.905Z,101613.31
2023-04-05T18:53:57.576Z,101617.19
2023-04-05T18:56:24.168Z,101612.56
2023-04-05T18:58:51.146Z,101616.34
2023-04-05T19:01:19.811Z,101618.63
2023-04-05T19:03:47.346Z,101616.03
2023-04-05T19:06:14.168Z,101622.81
2023-04-05T19:08:40.999Z,101623.03
2023-04-05T19:11:07.683Z,101620.31
2023-04-05T19:13:34.248Z,101618.47
2023-04-05T19:16:00.829Z,101626.50
2023-04-05T19:18:28.020Z,101618.09
2023-04-05T19:20:55.945Z,101627.63
2023-04-05T19:23:22.924Z,101625.56
2023-04-05T19:25:49.453Z,101629.69
2023-04-05T19:28:16.312Z,101628.44
2023-04-05T19:30:43.524Z,101629.13
2023-04-05T19:33:10.462Z,101624.38
2023-04-05T19:35:37.160Z,101623.00
2023-04-05T19:38:04.880Z,101627.75
2023-04-05T19:40:31.617Z,101624.81
2023-04-05T19:42:59.681Z,101620.97
2023-04-05T19:45:27.626Z,101621.34
2023-04-05T19:47:55.255Z,101619.72
2023-04-05T19:50:47.995Z,101619.28
2023-04-05T19:53:41.755Z,101620.41
2023-04-05T19:56:21.009Z,101625.16
2023-04-05T19:58:49.367Z,101617.13
2023-04-05T20:01:34.279Z,101621.28
2023-04-05T20:04:02.570Z,101613.63
2023-04-05T20:06:30.273Z,101611.56
2023-04-05T20:09:02.418Z,101615.91
2023-04-05T20:11:29.035Z,101616.66
2023-04-05T20:13:56.995Z,101614.28
2023-04-05T20:16:28.881Z,101613.50
2023-04-05T20:18:59.292Z,101614.72
2023-04-05T20:21:26.133Z,101610.56
2023-04-05T20:23:52.953Z,101612.34
2023-04-05T20:26:29.514Z,101611.00
2023-04-05T20:29:01.051Z,101609.88
2023-04-05T20:31:29.461Z,101612.94
2023-04-05T20:34:15.413Z,101617.34
2023-04-05T20:36:50.894Z,101607.63
2023-04-05T20:39:17.504Z,101610.34
2023-04-05T20:41:44.755Z,101605.59
2023-04-05T20:44:11.296Z,101603.44
2023-04-05T20:46:37.978Z,101602.88
2023-04-05T20:49:04.742Z,101604.91
2023-04-05T20:51:31.726Z,101598.13
2023-04-05T20:53:58.332Z,101605.47
2023-04-05T20:56:25.054Z,101600.72
2023-04-05T20:58:51.650Z,101604.22
2023-04-05T21:01:18.307Z,101598.56
2023-04-05T21:03:45.051Z,101603.09
2023-04-05T21:06:11.767Z,101599.47
2023-04-05T21:08:39.722Z,101603.09
2023-04-05T21:11:07.162Z,101603.09
2023-04-05T21:13:33.813Z,101598.69
2023-04-05T21:16:00.652Z,101604.69
2023-04-05T21:18:27.273Z,101602.31
2023-04-05T21:20:54.226Z,101598.22
2023-04-05T21:23:22.945Z,101602.31
2023-04-05T21:25:50.001Z,101597.88
2023-04-05T21:28:16.788Z,101596.09
2023-04-05T21:30:43.774Z,101598.59
2023-04-05T21:33:10.635Z,101603.78
2023-04-05T21:35:37.560Z,101602.88
2023-04-05T21:38:04.100Z,101601.63
2023-04-05T21:40:30.774Z,101608.50
2023-04-05T21:42:57.606Z,101607.19
2023-04-05T21:45:24.431Z,101608.75
2023-04-05T21:47:50.984Z,101600.38
2023-04-05T21:50:17.512Z,101602.75
2023-04-05T21:52:45.365Z,101590.41
2023-04-05T21:55:12.216Z,101599.91
2023-04-05T21:57:38.744Z,101593.94
2023-04-05T22:00:10.702Z,101593.78
2023-04-05T22:02:40.148Z,101590.41
2023-04-05T22:05:07.586Z,101591.97
2023-04-05T22:07:34.468Z,101590.19
2023-04-05T22:10:01.668Z,101595.38
2023-04-05T22:12:28.376Z,101590.28
2023-04-05T22:14:54.891Z,101586.88
2023-04-05T22:17:21.552Z,101584.84
2023-04-05T22:19:48.361Z,101590.41
2023-04-05T22:22:16.671Z,101583.16
2023-04-05T22:24:43.469Z,101591.97
2023-04-05T22:27:10.051Z,101584.00
2023-04-05T22:29:37.114Z,101585.81
2023-04-05T22:32:03.697Z,101586.75
2023-04-05T22:34:30.468Z,101591.25
2023-04-05T22:36:56.961Z,101589.66
2023-04-05T22:39:23.463Z,101587.22
2023-04-05T22:41:49.960Z,101586.22
2023-04-05T22:44:16.437Z,101592.34
2023-04-05T22:46:42.983Z,101595.28
2023-04-05T22:49:09.659Z,101589.19
2023-04-05T22:51:36.331Z,101585.53
2023-04-05T22:54:02.816Z,101590.94
2023-04-05T22:56:29.304Z,101589.47
2023-04-05T22:58:55.867Z,101591.78
2023-04-05T23:01:22.465Z,101595.00
2023-04-05T23:03:49.014Z,101595.03
2023-04-05T23:06:15.900Z,101587.75
2023-04-05T23:08:42.423Z,101596.25
2023-04-05T23:11:09.015Z,101596.75
2023-04-05T23:13:35.501Z,101598.00
2023-04-05T23:16:02.154Z,101596.56
2023-04-05T23:18:28.666Z,101593.06
2023-04-05T23:20:55.427Z,101595.03
2023-04-05T23:23:21.927Z,101591.41
2023-04-05T23:25:48.474Z,101589.00
2023-04-05T23:28:15.414Z,101590.25
2023-04-05T23:30:41.925Z,101586.03
2023-04-05T23:33:08.582Z,101590.91
2023-04-05T23:35:39.804Z,101593.13
2023-04-05T23:38:07.214Z,101597.22
2023-04-05T23:40:33.868Z,101593.19
2023-04-05T23:43:00.583Z,101589.09
2023-04-05T23:45:27.088Z,101592.84
2023-04-05T23:47:55.520Z,101587.09
2023-04-05T23:50:22.132Z,101584.38
2023-04-05T23:52:49.380Z,101584.06
2023-04-05T23:55:16.307Z,101580.56
2023-04-05T23:57:42.924Z,101582.47
